sensor_id;sensor_type;location;lat;lon;timestamp;temperature;humidity
36186;DHT22;22228;53.222;7.446;2022-12-18T00:00:04;-4.50;99.90
36186;DHT22;22228;53.222;7.446;2022-12-18T00:02:33;-4.50;99.90
36186;DHT22;22228;53.222;7.446;2022-12-18T00:05:22;-4.50;99.90
36186;DHT22;22228;53.222;7.446;2022-12-18T00:07:43;-4.60;99.90
36186;DHT22;22228;53.222;7.446;2022-12-18T00:10:09;-4.60;99.90
36186;DHT22;22228;53.222;7.446;2022-12-18T00:12:33;-4.60;99.90
36186;DHT22;22228;53.222;7.446;2022-12-18T00:15:04;-4.60;99.90
36186;DHT22;22228;53.222;7.446;2022-12-18T00:17:26;-4.60;99.90
36186;DHT22;22228;53.222;7.446;2022-12-18T00:19:50;-4.60;99.90
36186;DHT22;22228;53.222;7.446;2022-12-18T00:22:17;-4.50;99.90
36186;DHT22;22228;53.222;7.446;2022-12-18T00:24:38;-4.50;99.90
36186;DHT22;22228;53.222;7.446;2022-12-18T00:27:00;-4.60;99.90
36186;DHT22;22228;53.222;7.446;2022-12-18T00:29:22;-4.60;99.90
36186;DHT22;22228;53.222;7.446;2022-12-18T00:31:45;-4.60;99.90
36186;DHT22;22228;53.222;7.446;2022-12-18T00:34:14;-4.50;99.90
36186;DHT22;22228;53.222;7.446;2022-12-18T00:36:34;-4.60;99.90
36186;DHT22;22228;53.222;7.446;2022-12-18T00:38:57;-4.70;99.90
36186;DHT22;22228;53.222;7.446;2022-12-18T00:41:21;-4.80;99.90
36186;DHT22;22228;53.222;7.446;2022-12-18T00:43:58;-4.80;99.90
36186;DHT22;22228;53.222;7.446;2022-12-18T00:46:26;-4.90;99.90
36186;DHT22;22228;53.222;7.446;2022-12-18T00:48:47;-4.90;99.90
36186;DHT22;22228;53.222;7.446;2022-12-18T00:51:09;-5.00;99.90
36186;DHT22;22228;53.222;7.446;2022-12-18T00:53:35;-5.00;99.90
36186;DHT22;22228;53.222;7.446;2022-12-18T00:55:56;-5.00;99.90
36186;DHT22;22228;53.222;7.446;2022-12-18T00:58:17;-5.10;99.90
36186;DHT22;22228;53.222;7.446;2022-12-18T01:01:10;-5.20;99.90
36186;DHT22;22228;53.222;7.446;2022-12-18T01:03:32;-5.20;99.90
36186;DHT22;22228;53.222;7.446;2022-12-18T01:05:53;-5.30;99.90
36186;DHT22;22228;53.222;7.446;2022-12-18T01:08:23;-5.30;99.90
36186;DHT22;22228;53.222;7.446;2022-12-18T01:10:43;-5.30;99.90
36186;DHT22;22228;53.222;7.446;2022-12-18T01:13:11;-5.30;99.90
36186;DHT22;22228;53.222;7.446;2022-12-18T04:00:51;-6.80;99.90
36186;DHT22;22228;53.222;7.446;2022-12-18T04:03:16;-6.80;99.90
36186;DHT22;22228;53.222;7.446;2022-12-18T04:09:01;-6.70;99.90
36186;DHT22;22228;53.222;7.446;2022-12-18T04:11:24;-6.60;99.90
36186;DHT22;22228;53.222;7.446;2022-12-18T04:14:09;-6.60;99.90
36186;DHT22;22228;53.222;7.446;2022-12-18T04:16:39;-6.60;99.90
36186;DHT22;22228;53.222;7.446;2022-12-18T04:19:08;-6.60;99.90
36186;DHT22;22228;53.222;7.446;2022-12-18T04:21:33;-6.70;99.90
36186;DHT22;22228;53.222;7.446;2022-12-18T04:23:55;-6.70;99.90
36186;DHT22;22228;53.222;7.446;2022-12-18T04:26:24;-6.80;99.90
36186;DHT22;22228;53.222;7.446;2022-12-18T04:32:33;-6.90;99.90
36186;DHT22;22228;53.222;7.446;2022-12-18T04:35:20;-7.00;99.90
36186;DHT22;22228;53.222;7.446;2022-12-18T04:37:44;-7.00;99.90
36186;DHT22;22228;53.222;7.446;2022-12-18T04:40:10;-7.10;99.90
36186;DHT22;22228;53.222;7.446;2022-12-18T04:49:30;-7.10;99.90
36186;DHT22;22228;53.222;7.446;2022-12-18T04:51:52;-7.10;99.90
36186;DHT22;22228;53.222;7.446;2022-12-18T04:54:13;-7.20;99.90
36186;DHT22;22228;53.222;7.446;2022-12-18T04:56:35;-7.20;99.90
36186;DHT22;22228;53.222;7.446;2022-12-18T04:58:55;-7.20;99.90
36186;DHT22;22228;53.222;7.446;2022-12-18T05:01:41;-7.20;99.90
36186;DHT22;22228;53.222;7.446;2022-12-18T05:04:24;-7.20;99.90
36186;DHT22;22228;53.222;7.446;2022-12-18T05:07:28;-7.20;99.90
36186;DHT22;22228;53.222;7.446;2022-12-18T05:09:57;-7.20;99.90
36186;DHT22;22228;53.222;7.446;2022-12-18T05:12:20;-7.20;99.90
36186;DHT22;22228;53.222;7.446;2022-12-18T05:14:46;-7.10;99.90
36186;DHT22;22228;53.222;7.446;2022-12-18T05:17:10;-7.20;99.90
36186;DHT22;22228;53.222;7.446;2022-12-18T05:19:31;-7.10;99.90
36186;DHT22;22228;53.222;7.446;2022-12-18T05:21:59;-7.10;99.90
36186;DHT22;22228;53.222;7.446;2022-12-18T05:24:24;-7.10;99.90
36186;DHT22;22228;53.222;7.446;2022-12-18T05:26:49;-7.00;99.90
36186;DHT22;22228;53.222;7.446;2022-12-18T05:29:50;-7.00;99.90
36186;DHT22;22228;53.222;7.446;2022-12-18T05:33:03;-7.00;99.90
36186;DHT22;22228;53.222;7.446;2022-12-18T05:46:29;-7.10;99.90
36186;DHT22;22228;53.222;7.446;2022-12-18T05:48:54;-7.10;99.90
36186;DHT22;22228;53.222;7.446;2022-12-18T05:51:23;-7.20;99.90
36186;DHT22;22228;53.222;7.446;2022-12-18T05:53:45;-7.20;99.90
36186;DHT22;22228;53.222;7.446;2022-12-18T05:56:12;-7.20;99.90
36186;DHT22;22228;53.222;7.446;2022-12-18T05:59:35;-7.30;99.90
36186;DHT22;22228;53.222;7.446;2022-12-18T06:02:54;-7.40;99.90
36186;DHT22;22228;53.222;7.446;2022-12-18T06:05:15;-7.40;99.90
36186;DHT22;22228;53.222;7.446;2022-12-18T06:07:37;-7.40;99.90
36186;DHT22;22228;53.222;7.446;2022-12-18T06:09:59;-7.40;99.90
36186;DHT22;22228;53.222;7.446;2022-12-18T06:16:11;-7.40;99.90
36186;DHT22;22228;53.222;7.446;2022-12-18T06:18:34;-7.50;99.90
36186;DHT22;22228;53.222;7.446;2022-12-18T06:20:56;-7.50;99.90
36186;DHT22;22228;53.222;7.446;2022-12-18T06:23:44;-7.50;99.90
36186;DHT22;22228;53.222;7.446;2022-12-18T06:26:12;-7.50;99.90
36186;DHT22;22228;53.222;7.446;2022-12-18T06:30:14;-7.60;99.90
36186;DHT22;22228;53.222;7.446;2022-12-18T06:32:08;-7.60;99.90
36186;DHT22;22228;53.222;7.446;2022-12-18T06:34:37;-7.60;99.90
36186;DHT22;22228;53.222;7.446;2022-12-18T06:37:05;-7.60;99.90
36186;DHT22;22228;53.222;7.446;2022-12-18T06:39:27;-7.50;99.90
36186;DHT22;22228;53.222;7.446;2022-12-18T06:45:17;-7.50;99.90
36186;DHT22;22228;53.222;7.446;2022-12-18T06:47:39;-7.50;99.90
36186;DHT22;22228;53.222;7.446;2022-12-18T06:50:04;-7.60;99.90
36186;DHT22;22228;53.222;7.446;2022-12-18T06:52:31;-7.70;99.90
36186;DHT22;22228;53.222;7.446;2022-12-18T06:55:00;-7.70;99.90
36186;DHT22;22228;53.222;7.446;2022-12-18T06:57:23;-7.70;99.90
36186;DHT22;22228;53.222;7.446;2022-12-18T06:59:46;-7.70;99.90
36186;DHT22;22228;53.222;7.446;2022-12-18T07:02:11;-7.60;99.90
36186;DHT22;22228;53.222;7.446;2022-12-18T07:07:47;-7.60;99.90
36186;DHT22;22228;53.222;7.446;2022-12-18T07:10:09;-7.60;99.90
36186;DHT22;22228;53.222;7.446;2022-12-18T07:12:31;-7.50;99.90
36186;DHT22;22228;53.222;7.446;2022-12-18T07:15:01;-7.50;99.90
36186;DHT22;22228;53.222;7.446;2022-12-18T07:17:26;-7.50;99.90
36186;DHT22;22228;53.222;7.446;2022-12-18T07:20:17;-7.50;99.90
36186;DHT22;22228;53.222;7.446;2022-12-18T07:22:39;-7.40;99.90
36186;DHT22;22228;53.222;7.446;2022-12-18T07:28:20;-7.50;99.90
36186;DHT22;22228;53.222;7.446;2022-12-18T07:34:34;-7.40;99.90
36186;DHT22;22228;53.222;7.446;2022-12-18T07:43:24;-7.40;99.90
36186;DHT22;22228;53.222;7.446;2022-12-18T07:46:12;-7.40;99.90
36186;DHT22;22228;53.222;7.446;2022-12-18T07:48:34;-7.50;99.90
36186;DHT22;22228;53.222;7.446;2022-12-18T07:51:04;-7.50;99.90
36186;DHT22;22228;53.222;7.446;2022-12-18T07:56:27;-7.40;99.90
36186;DHT22;22228;53.222;7.446;2022-12-18T07:58:50;-7.40;99.90
36186;DHT22;22228;53.222;7.446;2022-12-18T08:01:13;-7.30;99.90
36186;DHT22;22228;53.222;7.446;2022-12-18T08:03:59;-7.30;99.90
36186;DHT22;22228;53.222;7.446;2022-12-18T08:06:21;-7.20;99.90
36186;DHT22;22228;53.222;7.446;2022-12-18T08:08:42;-7.10;99.90
36186;DHT22;22228;53.222;7.446;2022-12-18T08:11:04;-7.00;99.90
36186;DHT22;22228;53.222;7.446;2022-12-18T08:13:30;-7.00;99.90
36186;DHT22;22228;53.222;7.446;2022-12-18T08:22:22;-6.80;99.90
36186;DHT22;22228;53.222;7.446;2022-12-18T08:24:51;-6.80;99.90
36186;DHT22;22228;53.222;7.446;2022-12-18T08:27:13;-6.70;99.90
36186;DHT22;22228;53.222;7.446;2022-12-18T08:29:34;-6.70;99.90
36186;DHT22;22228;53.222;7.446;2022-12-18T08:31:55;-6.60;99.90
36186;DHT22;22228;53.222;7.446;2022-12-18T08:34:17;-6.50;99.90
36186;DHT22;22228;53.222;7.446;2022-12-18T08:36:45;-6.50;99.90
36186;DHT22;22228;53.222;7.446;2022-12-18T08:39:15;-6.40;99.90
36186;DHT22;22228;53.222;7.446;2022-12-18T08:41:55;-6.30;99.90
36186;DHT22;22228;53.222;7.446;2022-12-18T08:45:03;-6.30;99.90
36186;DHT22;22228;53.222;7.446;2022-12-18T08:47:27;-6.20;99.90
36186;DHT22;22228;53.222;7.446;2022-12-18T08:49:47;-6.20;99.90
36186;DHT22;22228;53.222;7.446;2022-12-18T08:52:35;-6.10;99.90
36186;DHT22;22228;53.222;7.446;2022-12-18T08:59:04;-5.90;99.90
36186;DHT22;22228;53.222;7.446;2022-12-18T09:01:25;-5.90;99.90
36186;DHT22;22228;53.222;7.446;2022-12-18T09:07:25;-5.70;99.90
36186;DHT22;22228;53.222;7.446;2022-12-18T09:09:54;-5.70;99.90
36186;DHT22;22228;53.222;7.446;2022-12-18T09:13:03;-5.60;99.90
36186;DHT22;22228;53.222;7.446;2022-12-18T09:15:31;-5.50;99.90
36186;DHT22;22228;53.222;7.446;2022-12-18T09:17:58;-5.50;99.90
36186;DHT22;22228;53.222;7.446;2022-12-18T09:20:22;-5.40;99.90
36186;DHT22;22228;53.222;7.446;2022-12-18T09:29:23;-5.30;99.90
36186;DHT22;22228;53.222;7.446;2022-12-18T09:31:49;-5.20;99.90
36186;DHT22;22228;53.222;7.446;2022-12-18T09:34:15;-5.20;99.90
36186;DHT22;22228;53.222;7.446;2022-12-18T09:36:37;-5.20;99.90
36186;DHT22;22228;53.222;7.446;2022-12-18T09:39:23;-5.10;99.90
36186;DHT22;22228;53.222;7.446;2022-12-18T09:41:52;-5.10;99.90
36186;DHT22;22228;53.222;7.446;2022-12-18T09:48:29;-4.90;99.90
36186;DHT22;22228;53.222;7.446;2022-12-18T09:51:13;-4.80;99.90
36186;DHT22;22228;53.222;7.446;2022-12-18T09:53:39;-4.70;99.90
36186;DHT22;22228;53.222;7.446;2022-12-18T09:56:04;-4.60;99.90
36186;DHT22;22228;53.222;7.446;2022-12-18T09:58:37;-4.50;99.90
36186;DHT22;22228;53.222;7.446;2022-12-18T10:01:01;-4.50;99.90
36186;DHT22;22228;53.222;7.446;2022-12-18T10:03:54;-4.40;99.90
36186;DHT22;22228;53.222;7.446;2022-12-18T10:09:26;-4.20;99.90
36186;DHT22;22228;53.222;7.446;2022-12-18T10:11:55;-4.20;99.90
36186;DHT22;22228;53.222;7.446;2022-12-18T10:14:30;-4.10;99.90
36186;DHT22;22228;53.222;7.446;2022-12-18T10:16:59;-4.00;99.90
36186;DHT22;22228;53.222;7.446;2022-12-18T10:19:39;-3.80;99.90
36186;DHT22;22228;53.222;7.446;2022-12-18T10:22:13;-3.80;99.90
36186;DHT22;22228;53.222;7.446;2022-12-18T10:24:38;-3.70;99.90
36186;DHT22;22228;53.222;7.446;2022-12-18T10:27:12;-3.70;99.90
36186;DHT22;22228;53.222;7.446;2022-12-18T10:29:36;-3.70;99.90
36186;DHT22;22228;53.222;7.446;2022-12-18T10:31:57;-3.70;99.90
36186;DHT22;22228;53.222;7.446;2022-12-18T10:34:48;-3.60;99.90
36186;DHT22;22228;53.222;7.446;2022-12-18T10:37:15;-3.60;99.90
36186;DHT22;22228;53.222;7.446;2022-12-18T10:39:39;-3.60;99.90
36186;DHT22;22228;53.222;7.446;2022-12-18T10:42:10;-3.50;99.90
36186;DHT22;22228;53.222;7.446;2022-12-18T10:44:32;-3.50;99.90
36186;DHT22;22228;53.222;7.446;2022-12-18T10:47:01;-3.40;99.90
36186;DHT22;22228;53.222;7.446;2022-12-18T10:49:25;-3.30;99.90
36186;DHT22;22228;53.222;7.446;2022-12-18T10:51:48;-3.20;99.90
36186;DHT22;22228;53.222;7.446;2022-12-18T10:54:15;-3.10;99.90
36186;DHT22;22228;53.222;7.446;2022-12-18T10:56:36;-3.10;99.90
36186;DHT22;22228;53.222;7.446;2022-12-18T10:59:24;-3.10;99.90
36186;DHT22;22228;53.222;7.446;2022-12-18T11:01:47;-3.00;99.90
36186;DHT22;22228;53.222;7.446;2022-12-18T11:04:09;-3.10;99.90
36186;DHT22;22228;53.222;7.446;2022-12-18T11:06:58;-3.10;99.90
36186;DHT22;22228;53.222;7.446;2022-12-18T11:09:22;-3.00;99.90
36186;DHT22;22228;53.222;7.446;2022-12-18T11:11:48;-3.00;99.90
36186;DHT22;22228;53.222;7.446;2022-12-18T11:14:17;-3.00;99.90
36186;DHT22;22228;53.222;7.446;2022-12-18T11:17:19;-3.00;99.90
36186;DHT22;22228;53.222;7.446;2022-12-18T11:19:41;-2.90;99.90
36186;DHT22;22228;53.222;7.446;2022-12-18T11:22:18;-2.90;99.90
36186;DHT22;22228;53.222;7.446;2022-12-18T11:24:40;-2.90;99.90
36186;DHT22;22228;53.222;7.446;2022-12-18T11:27:02;-2.90;99.90
36186;DHT22;22228;53.222;7.446;2022-12-18T11:29:33;-2.90;99.90
36186;DHT22;22228;53.222;7.446;2022-12-18T11:32:25;-2.90;99.90
36186;DHT22;22228;53.222;7.446;2022-12-18T11:35:23;-2.80;99.90
36186;DHT22;22228;53.222;7.446;2022-12-18T11:37:53;-2.80;99.90
36186;DHT22;22228;53.222;7.446;2022-12-18T11:40:21;-2.70;99.90
36186;DHT22;22228;53.222;7.446;2022-12-18T11:42:50;-2.60;99.90
36186;DHT22;22228;53.222;7.446;2022-12-18T11:45:40;-2.60;99.90
36186;DHT22;22228;53.222;7.446;2022-12-18T11:48:04;-2.50;99.90
36186;DHT22;22228;53.222;7.446;2022-12-18T11:51:00;-2.50;99.90
36186;DHT22;22228;53.222;7.446;2022-12-18T11:53:24;-2.40;99.90
36186;DHT22;22228;53.222;7.446;2022-12-18T11:55:55;-2.40;99.90
36186;DHT22;22228;53.222;7.446;2022-12-18T11:58:27;-2.30;99.90
36186;DHT22;22228;53.222;7.446;2022-12-18T12:00:56;-2.20;99.90
36186;DHT22;22228;53.222;7.446;2022-12-18T12:03:36;-2.20;99.90
36186;DHT22;22228;53.222;7.446;2022-12-18T12:06:08;-2.20;99.90
36186;DHT22;22228;53.222;7.446;2022-12-18T12:08:41;-2.20;99.90
36186;DHT22;22228;53.222;7.446;2022-12-18T12:11:08;-2.10;99.90
36186;DHT22;22228;53.222;7.446;2022-12-18T12:13:42;-2.10;99.90
36186;DHT22;22228;53.222;7.446;2022-12-18T12:16:18;-2.10;99.90
36186;DHT22;22228;53.222;7.446;2022-12-18T12:19:43;-2.10;99.90
36186;DHT22;22228;53.222;7.446;2022-12-18T12:22:37;-2.10;99.90
36186;DHT22;22228;53.222;7.446;2022-12-18T12:25:21;-2.10;99.90
36186;DHT22;22228;53.222;7.446;2022-12-18T12:28:02;-2.10;99.90
36186;DHT22;22228;53.222;7.446;2022-12-18T12:31:03;-2.00;99.90
36186;DHT22;22228;53.222;7.446;2022-12-18T12:33:54;-2.00;99.90
36186;DHT22;22228;53.222;7.446;2022-12-18T12:36:27;-1.90;99.90
36186;DHT22;22228;53.222;7.446;2022-12-18T12:38:53;-1.90;99.90
36186;DHT22;22228;53.222;7.446;2022-12-18T12:41:20;-1.90;99.90
36186;DHT22;22228;53.222;7.446;2022-12-18T12:44:17;-1.90;99.90
36186;DHT22;22228;53.222;7.446;2022-12-18T12:46:41;-1.90;99.90
36186;DHT22;22228;53.222;7.446;2022-12-18T12:49:07;-1.90;99.90
36186;DHT22;22228;53.222;7.446;2022-12-18T12:51:34;-2.00;99.90
36186;DHT22;22228;53.222;7.446;2022-12-18T12:54:05;-2.00;99.90
36186;DHT22;22228;53.222;7.446;2022-12-18T12:56:42;-2.00;99.90
36186;DHT22;22228;53.222;7.446;2022-12-18T12:59:13;-2.00;99.90
36186;DHT22;22228;53.222;7.446;2022-12-18T13:01:38;-2.00;99.90
36186;DHT22;22228;53.222;7.446;2022-12-18T13:04:32;-2.00;99.90
36186;DHT22;22228;53.222;7.446;2022-12-18T13:07:20;-2.00;99.90
36186;DHT22;22228;53.222;7.446;2022-12-18T13:10:23;-2.10;99.90
36186;DHT22;22228;53.222;7.446;2022-12-18T13:12:53;-2.10;99.90
36186;DHT22;22228;53.222;7.446;2022-12-18T13:15:24;-2.10;99.90
36186;DHT22;22228;53.222;7.446;2022-12-18T13:17:46;-2.00;99.90
36186;DHT22;22228;53.222;7.446;2022-12-18T13:20:39;-2.10;99.90
36186;DHT22;22228;53.222;7.446;2022-12-18T13:23:29;-2.10;99.90
36186;DHT22;22228;53.222;7.446;2022-12-18T13:25:52;-2.10;99.90
36186;DHT22;22228;53.222;7.446;2022-12-18T13:28:52;-2.10;99.90
36186;DHT22;22228;53.222;7.446;2022-12-18T13:31:14;-2.10;99.90
36186;DHT22;22228;53.222;7.446;2022-12-18T13:33:41;-2.10;99.90
36186;DHT22;22228;53.222;7.446;2022-12-18T13:36:11;-2.20;99.90
36186;DHT22;22228;53.222;7.446;2022-12-18T13:38:40;-2.20;99.90
36186;DHT22;22228;53.222;7.446;2022-12-18T13:41:02;-2.10;99.90
36186;DHT22;22228;53.222;7.446;2022-12-18T13:43:31;-2.20;99.90
36186;DHT22;22228;53.222;7.446;2022-12-18T13:46:04;-2.20;99.90
36186;DHT22;22228;53.222;7.446;2022-12-18T13:48:26;-2.20;99.90
36186;DHT22;22228;53.222;7.446;2022-12-18T13:50:58;-2.20;99.90
36186;DHT22;22228;53.222;7.446;2022-12-18T13:53:22;-2.10;99.90
36186;DHT22;22228;53.222;7.446;2022-12-18T13:55:50;-2.20;99.90
36186;DHT22;22228;53.222;7.446;2022-12-18T13:58:12;-2.20;99.90
36186;DHT22;22228;53.222;7.446;2022-12-18T14:00:41;-2.20;99.90
36186;DHT22;22228;53.222;7.446;2022-12-18T14:03:18;-2.20;99.90
36186;DHT22;22228;53.222;7.446;2022-12-18T14:06:07;-2.20;99.90
36186;DHT22;22228;53.222;7.446;2022-12-18T14:08:39;-2.20;99.90
36186;DHT22;22228;53.222;7.446;2022-12-18T14:11:00;-2.20;99.90
36186;DHT22;22228;53.222;7.446;2022-12-18T14:13:26;-2.30;99.90
36186;DHT22;22228;53.222;7.446;2022-12-18T14:19:12;-2.40;99.90
36186;DHT22;22228;53.222;7.446;2022-12-18T14:21:34;-2.40;99.90
36186;DHT22;22228;53.222;7.446;2022-12-18T14:24:14;-2.50;99.90
36186;DHT22;22228;53.222;7.446;2022-12-18T14:27:12;-2.50;99.90
36186;DHT22;22228;53.222;7.446;2022-12-18T14:29:34;-2.40;99.90
36186;DHT22;22228;53.222;7.446;2022-12-18T14:32:22;-2.50;99.90
36186;DHT22;22228;53.222;7.446;2022-12-18T14:34:45;-2.50;99.90
36186;DHT22;22228;53.222;7.446;2022-12-18T14:37:10;-2.50;99.90
36186;DHT22;22228;53.222;7.446;2022-12-18T14:39:35;-2.50;99.90
36186;DHT22;22228;53.222;7.446;2022-12-18T14:42:21;-2.50;99.90
36186;DHT22;22228;53.222;7.446;2022-12-18T14:44:42;-2.50;99.90
36186;DHT22;22228;53.222;7.446;2022-12-18T14:47:04;-2.60;99.90
36186;DHT22;22228;53.222;7.446;2022-12-18T14:49:29;-2.60;99.90
36186;DHT22;22228;53.222;7.446;2022-12-18T14:52:22;-2.60;99.90
36186;DHT22;22228;53.222;7.446;2022-12-18T14:55:15;-2.60;99.90
36186;DHT22;22228;53.222;7.446;2022-12-18T14:57:37;-2.60;99.90
36186;DHT22;22228;53.222;7.446;2022-12-18T15:00:04;-2.60;99.90
36186;DHT22;22228;53.222;7.446;2022-12-18T15:02:26;-2.60;99.90
36186;DHT22;22228;53.222;7.446;2022-12-18T15:05:17;-2.60;99.90
36186;DHT22;22228;53.222;7.446;2022-12-18T15:07:44;-2.60;99.90
36186;DHT22;22228;53.222;7.446;2022-12-18T15:10:11;-2.70;99.90
36186;DHT22;22228;53.222;7.446;2022-12-18T15:12:34;-2.60;99.90
36186;DHT22;22228;53.222;7.446;2022-12-18T15:14:57;-2.70;99.90
36186;DHT22;22228;53.222;7.446;2022-12-18T15:17:19;-2.60;99.90
36186;DHT22;22228;53.222;7.446;2022-12-18T15:19:48;-2.60;99.90
36186;DHT22;22228;53.222;7.446;2022-12-18T15:22:19;-2.60;99.90
36186;DHT22;22228;53.222;7.446;2022-12-18T15:24:42;-2.60;99.90
36186;DHT22;22228;53.222;7.446;2022-12-18T15:27:03;-2.60;99.90
36186;DHT22;22228;53.222;7.446;2022-12-18T15:30:20;-2.60;99.90
36186;DHT22;22228;53.222;7.446;2022-12-18T15:32:42;-2.60;99.90
36186;DHT22;22228;53.222;7.446;2022-12-18T15:35:07;-2.60;99.90
36186;DHT22;22228;53.222;7.446;2022-12-18T15:37:35;-2.60;99.90
36186;DHT22;22228;53.222;7.446;2022-12-18T15:40:23;-2.60;99.90
36186;DHT22;22228;53.222;7.446;2022-12-18T15:43:09;-2.60;99.90
36186;DHT22;22228;53.222;7.446;2022-12-18T15:45:50;-2.50;99.90
36186;DHT22;22228;53.222;7.446;2022-12-18T15:48:21;-2.50;99.90
36186;DHT22;22228;53.222;7.446;2022-12-18T15:50:43;-2.50;99.90
36186;DHT22;22228;53.222;7.446;2022-12-18T15:53:32;-2.50;99.90
36186;DHT22;22228;53.222;7.446;2022-12-18T15:55:55;-2.50;99.90
36186;DHT22;22228;53.222;7.446;2022-12-18T15:58:35;-2.50;99.90
36186;DHT22;22228;53.222;7.446;2022-12-18T16:01:23;-2.50;99.90
36186;DHT22;22228;53.222;7.446;2022-12-18T16:03:45;-2.50;99.90
36186;DHT22;22228;53.222;7.446;2022-12-18T16:06:06;-2.50;99.90
36186;DHT22;22228;53.222;7.446;2022-12-18T16:08:28;-2.50;99.90
36186;DHT22;22228;53.222;7.446;2022-12-18T16:10:49;-2.50;99.90
36186;DHT22;22228;53.222;7.446;2022-12-18T16:13:38;-2.50;99.90
36186;DHT22;22228;53.222;7.446;2022-12-18T16:16:01;-2.50;99.90
36186;DHT22;22228;53.222;7.446;2022-12-18T16:18:23;-2.50;99.90
36186;DHT22;22228;53.222;7.446;2022-12-18T16:20:47;-2.50;99.90
36186;DHT22;22228;53.222;7.446;2022-12-18T16:23:09;-2.50;99.90
36186;DHT22;22228;53.222;7.446;2022-12-18T16:25:56;-2.50;99.90
36186;DHT22;22228;53.222;7.446;2022-12-18T16:28:45;-2.50;99.90
36186;DHT22;22228;53.222;7.446;2022-12-18T16:31:09;-2.50;99.90
36186;DHT22;22228;53.222;7.446;2022-12-18T16:33:33;-2.50;99.90
36186;DHT22;22228;53.222;7.446;2022-12-18T16:35:53;-2.50;99.90
36186;DHT22;22228;53.222;7.446;2022-12-18T16:38:45;-2.40;99.90
36186;DHT22;22228;53.222;7.446;2022-12-18T16:41:17;-2.50;99.90
36186;DHT22;22228;53.222;7.446;2022-12-18T16:44:22;-2.40;99.90
36186;DHT22;22228;53.222;7.446;2022-12-18T16:46:44;-2.40;99.90
36186;DHT22;22228;53.222;7.446;2022-12-18T16:49:29;-2.40;99.90
36186;DHT22;22228;53.222;7.446;2022-12-18T16:51:50;-2.40;99.90
36186;DHT22;22228;53.222;7.446;2022-12-18T16:54:12;-2.40;99.90
36186;DHT22;22228;53.222;7.446;2022-12-18T16:56:32;-2.30;99.90
36186;DHT22;22228;53.222;7.446;2022-12-18T16:59:01;-2.30;99.90
36186;DHT22;22228;53.222;7.446;2022-12-18T17:01:26;-2.30;99.90
36186;DHT22;22228;53.222;7.446;2022-12-18T17:03:51;-2.30;99.90
36186;DHT22;22228;53.222;7.446;2022-12-18T17:06:44;-2.30;99.90
36186;DHT22;22228;53.222;7.446;2022-12-18T17:09:14;-2.20;99.90
36186;DHT22;22228;53.222;7.446;2022-12-18T17:12:05;-2.20;99.90
36186;DHT22;22228;53.222;7.446;2022-12-18T17:14:27;-2.20;99.90
36186;DHT22;22228;53.222;7.446;2022-12-18T17:16:51;-2.10;99.90
36186;DHT22;22228;53.222;7.446;2022-12-18T17:19:13;-2.10;99.90
36186;DHT22;22228;53.222;7.446;2022-12-18T17:21:35;-2.10;99.90
36186;DHT22;22228;53.222;7.446;2022-12-18T17:24:20;-2.10;99.90
36186;DHT22;22228;53.222;7.446;2022-12-18T17:26:51;-2.00;99.90
36186;DHT22;22228;53.222;7.446;2022-12-18T17:29:13;-2.00;99.90
36186;DHT22;22228;53.222;7.446;2022-12-18T17:31:34;-2.00;99.90
36186;DHT22;22228;53.222;7.446;2022-12-18T17:34:02;-1.90;99.90
36186;DHT22;22228;53.222;7.446;2022-12-18T17:36:24;-1.90;99.90
36186;DHT22;22228;53.222;7.446;2022-12-18T17:38:49;-1.90;99.90
36186;DHT22;22228;53.222;7.446;2022-12-18T17:41:13;-1.90;99.90
36186;DHT22;22228;53.222;7.446;2022-12-18T17:43:39;-1.80;99.90
36186;DHT22;22228;53.222;7.446;2022-12-18T17:46:05;-1.80;99.90
36186;DHT22;22228;53.222;7.446;2022-12-18T17:48:26;-1.70;99.90
36186;DHT22;22228;53.222;7.446;2022-12-18T17:50:48;-1.70;99.90
36186;DHT22;22228;53.222;7.446;2022-12-18T17:53:10;-1.70;99.90
36186;DHT22;22228;53.222;7.446;2022-12-18T17:56:22;-1.60;99.90
36186;DHT22;22228;53.222;7.446;2022-12-18T17:58:48;-1.60;99.90
36186;DHT22;22228;53.222;7.446;2022-12-18T18:01:13;-1.50;99.90
36186;DHT22;22228;53.222;7.446;2022-12-18T18:03:35;-1.50;99.90
36186;DHT22;22228;53.222;7.446;2022-12-18T18:05:59;-1.40;99.90
36186;DHT22;22228;53.222;7.446;2022-12-18T18:08:21;-1.40;99.90
36186;DHT22;22228;53.222;7.446;2022-12-18T18:11:09;-1.40;99.90
36186;DHT22;22228;53.222;7.446;2022-12-18T18:14:01;-1.40;99.90
36186;DHT22;22228;53.222;7.446;2022-12-18T18:16:23;-1.40;99.90
36186;DHT22;22228;53.222;7.446;2022-12-18T18:18:46;-1.40;99.90
36186;DHT22;22228;53.222;7.446;2022-12-18T18:21:38;-1.30;99.90
36186;DHT22;22228;53.222;7.446;2022-12-18T18:24:00;-1.30;99.90
36186;DHT22;22228;53.222;7.446;2022-12-18T18:26:46;-1.30;99.90
36186;DHT22;22228;53.222;7.446;2022-12-18T18:29:08;-1.30;99.90
36186;DHT22;22228;53.222;7.446;2022-12-18T18:31:30;-1.20;99.90
36186;DHT22;22228;53.222;7.446;2022-12-18T18:33:53;-1.20;99.90
36186;DHT22;22228;53.222;7.446;2022-12-18T18:36:41;-1.20;99.90
36186;DHT22;22228;53.222;7.446;2022-12-18T18:39:03;-1.20;99.90
36186;DHT22;22228;53.222;7.446;2022-12-18T18:41:24;-1.10;99.90
36186;DHT22;22228;53.222;7.446;2022-12-18T18:43:45;-1.10;99.90
36186;DHT22;22228;53.222;7.446;2022-12-18T18:46:31;-1.10;99.90
36186;DHT22;22228;53.222;7.446;2022-12-18T18:48:55;-1.10;99.90
36186;DHT22;22228;53.222;7.446;2022-12-18T18:51:21;-1.10;99.90
36186;DHT22;22228;53.222;7.446;2022-12-18T18:53:47;-1.00;99.90
36186;DHT22;22228;53.222;7.446;2022-12-18T18:56:11;-1.00;99.90
36186;DHT22;22228;53.222;7.446;2022-12-18T18:58:33;-1.00;99.90
36186;DHT22;22228;53.222;7.446;2022-12-18T19:01:19;-1.00;99.90
36186;DHT22;22228;53.222;7.446;2022-12-18T19:03:41;-1.00;99.90
36186;DHT22;22228;53.222;7.446;2022-12-18T19:06:05;-1.00;99.90
36186;DHT22;22228;53.222;7.446;2022-12-18T19:08:36;-1.00;99.90
36186;DHT22;22228;53.222;7.446;2022-12-18T19:11:01;-1.00;99.90
36186;DHT22;22228;53.222;7.446;2022-12-18T19:13:24;-1.00;99.90
36186;DHT22;22228;53.222;7.446;2022-12-18T19:16:10;-1.00;99.90
36186;DHT22;22228;53.222;7.446;2022-12-18T19:18:32;-1.00;99.90
36186;DHT22;22228;53.222;7.446;2022-12-18T19:20:57;-1.00;99.90
36186;DHT22;22228;53.222;7.446;2022-12-18T19:23:24;-0.90;99.90
36186;DHT22;22228;53.222;7.446;2022-12-18T19:25:48;-1.00;99.90
36186;DHT22;22228;53.222;7.446;2022-12-18T19:28:11;-1.00;99.90
36186;DHT22;22228;53.222;7.446;2022-12-18T19:30:32;-1.00;99.90
36186;DHT22;22228;53.222;7.446;2022-12-18T19:32:56;-1.00;99.90
36186;DHT22;22228;53.222;7.446;2022-12-18T19:35:42;-1.00;99.90
36186;DHT22;22228;53.222;7.446;2022-12-18T19:38:28;-1.00;99.90
36186;DHT22;22228;53.222;7.446;2022-12-18T19:40:51;-1.00;99.90
36186;DHT22;22228;53.222;7.446;2022-12-18T19:43:13;-1.00;99.90
36186;DHT22;22228;53.222;7.446;2022-12-18T19:45:35;-1.00;99.90
36186;DHT22;22228;53.222;7.446;2022-12-18T19:48:20;-1.00;99.90
36186;DHT22;22228;53.222;7.446;2022-12-18T19:51:16;-1.00;99.90
36186;DHT22;22228;53.222;7.446;2022-12-18T19:53:40;-1.00;99.90
36186;DHT22;22228;53.222;7.446;2022-12-18T19:56:04;-1.00;99.90
36186;DHT22;22228;53.222;7.446;2022-12-18T19:58:29;-1.00;99.90
36186;DHT22;22228;53.222;7.446;2022-12-18T20:04:02;-0.90;99.90